createdAt,value
2022-11-15T00:00:00.497Z,96.6
2022-11-15T00:05:00.528Z,96.9
2022-11-15T00:10:00.503Z,96.6
2022-11-15T00:15:00.513Z,96.9
2022-11-15T00:20:00.507Z,97.2
2022-11-15T00:25:00.579Z,96.9
2022-11-15T00:30:00.571Z,96.6
2022-11-15T00:35:00.424Z,96.9
2022-11-15T00:40:00.283Z,97.2
2022-11-15T00:45:00.231Z,97.9
2022-11-15T00:50:00.186Z,97.6
2022-11-15T00:55:00.191Z,97.2
2022-11-15T01:00:00.259Z,97.2
2022-11-15T01:05:00.308Z,96.6
2022-11-15T01:10:00.337Z,97.2
2022-11-15T01:15:00.319Z,97.2
2022-11-15T01:20:00.286Z,96.8
2022-11-15T01:25:00.287Z,97.2
2022-11-15T01:30:00.342Z,97.2
2022-11-15T01:35:00.249Z,97.2
2022-11-15T01:40:00.321Z,97.1
2022-11-15T01:45:00.514Z,97.1
2022-11-15T01:50:00.384Z,97.5
2022-11-15T01:55:00.312Z,97.4
2022-11-15T02:00:00.366Z,97.4
2022-11-15T02:05:00.332Z,97.4
2022-11-15T02:10:00.486Z,97.7
2022-11-15T02:15:00.352Z,97.8
2022-11-15T02:20:00.304Z,97.8
2022-11-15T02:25:00.305Z,98.1
2022-11-15T02:30:00.307Z,98.5
2022-11-15T02:35:00.398Z,98.5
2022-11-15T02:40:00.314Z,98.5
2022-11-15T02:45:00.324Z,98.5
2022-11-15T02:50:00.312Z,98.2
2022-11-15T02:55:00.331Z,98.2
2022-11-15T03:00:00.338Z,98.2
2022-11-15T03:05:00.688Z,97.9
2022-11-15T03:10:00.757Z,98.2
2022-11-15T03:15:00.677Z,98.3
2022-11-15T03:20:00.703Z,98.3
2022-11-15T03:25:00.725Z,98.3
2022-11-15T03:30:00.699Z,98
2022-11-15T03:35:00.712Z,98
2022-11-15T03:40:00.680Z,98
2022-11-15T03:45:00.695Z,98
2022-11-15T03:50:00.700Z,98
2022-11-15T03:55:00.726Z,97.7
2022-11-15T04:00:00.853Z,97.7
2022-11-15T04:05:00.705Z,97.4
2022-11-15T04:10:00.604Z,98.1
2022-11-15T04:15:00.609Z,98.1
2022-11-15T04:20:00.614Z,97.8
2022-11-15T04:25:00.622Z,97.4
2022-11-15T04:30:00.621Z,97.8
2022-11-15T04:35:00.628Z,97.4
2022-11-15T04:40:00.630Z,97.5
2022-11-15T04:45:00.633Z,97.4
2022-11-15T04:50:00.652Z,97.5
2022-11-15T04:55:06.725Z,97.1
2022-11-15T05:00:00.655Z,96.8
2022-11-15T05:05:00.662Z,96.8
2022-11-15T05:10:00.665Z,96.8
2022-11-15T05:15:00.667Z,96.1
2022-11-15T05:20:00.671Z,96.1
2022-11-15T05:25:00.679Z,96.4
2022-11-15T05:30:00.682Z,97.1
2022-11-15T05:35:00.683Z,96.7
2022-11-15T05:40:00.702Z,96.7
2022-11-15T05:45:00.702Z,96.7
2022-11-15T05:50:00.702Z,96.7
2022-11-15T05:55:00.711Z,97.1
2022-11-15T06:00:00.711Z,96.7
2022-11-15T06:05:00.760Z,96.8
2022-11-15T06:10:00.718Z,97.1
2022-11-15T06:15:00.729Z,97.1
2022-11-15T06:20:00.732Z,97.1
2022-11-15T06:25:05.211Z,97.1
2022-11-15T06:30:00.742Z,97.1
2022-11-15T06:35:00.748Z,97.4
2022-11-15T06:40:00.319Z,97.4
2022-11-15T06:45:00.334Z,97.4
2022-11-15T06:50:00.362Z,97.5
2022-11-15T06:55:00.193Z,97.5
2022-11-15T07:00:00.188Z,97.5
2022-11-15T07:05:00.199Z,97.5
2022-11-15T07:10:00.210Z,97.6
2022-11-15T07:15:00.214Z,97.6
2022-11-15T07:20:00.209Z,97.7
2022-11-15T07:25:00.224Z,97.7
2022-11-15T07:30:00.250Z,97.4
2022-11-15T07:35:00.245Z,97.2
2022-11-15T07:40:00.282Z,97.2
2022-11-15T07:45:00.275Z,96.9
2022-11-15T07:50:00.277Z,96.7
2022-11-15T07:55:00.270Z,96.7
2022-11-15T08:00:00.813Z,96.4
2022-11-15T08:05:00.805Z,96.1
2022-11-15T08:10:00.274Z,95.5
2022-11-15T08:15:00.291Z,95.5
2022-11-15T08:20:00.312Z,95.6
2022-11-15T08:25:00.307Z,94.7
2022-11-15T08:30:00.279Z,94.4
2022-11-15T08:35:00.275Z,94.1
2022-11-15T08:40:00.284Z,93.2
2022-11-15T08:45:00.297Z,92.6
2022-11-15T08:50:00.285Z,92
2022-11-15T08:55:00.299Z,92.1
2022-11-15T09:00:00.298Z,91.2
2022-11-15T09:05:00.297Z,90.2
2022-11-15T09:10:00.314Z,90.9
2022-11-15T09:15:00.312Z,89.7
2022-11-15T09:20:00.319Z,89.1
2022-11-15T09:25:00.320Z,89.1
2022-11-15T09:30:00.325Z,89.7
2022-11-15T09:35:00.331Z,89.1
2022-11-15T09:40:00.916Z,87.3
2022-11-15T09:45:00.348Z,87.6
2022-11-15T09:50:00.985Z,86
2022-11-15T09:55:00.356Z,85.4
2022-11-15T10:00:12.266Z,84.8
2022-11-15T10:05:00.366Z,85.1
2022-11-15T10:10:00.366Z,85.4
2022-11-15T10:15:00.375Z,86.4
2022-11-15T10:20:05.368Z,86.7
2022-11-15T10:25:00.385Z,86.7
2022-11-15T10:30:00.402Z,86.7
2022-11-15T10:35:00.408Z,86.7
2022-11-15T10:40:00.470Z,86.1
2022-11-15T10:45:00.405Z,85.5
2022-11-15T10:50:00.413Z,85.8
2022-11-15T10:55:00.415Z,86.1
2022-11-15T11:00:00.439Z,85.5
2022-11-15T11:05:00.420Z,85.5
2022-11-15T11:10:00.426Z,85.5
2022-11-15T11:15:00.441Z,85.5
2022-11-15T11:20:00.463Z,84.9
2022-11-15T11:25:00.447Z,84.9
2022-11-15T11:30:00.453Z,84.6
2022-11-15T11:35:00.457Z,84.6
2022-11-15T11:40:00.462Z,84.9
2022-11-15T11:45:00.469Z,84.9
2022-11-15T11:50:00.480Z,84.6
2022-11-15T11:55:00.483Z,85.2
2022-11-15T12:00:00.486Z,84.9
2022-11-15T12:05:00.489Z,84.9
2022-11-15T12:10:00.596Z,84.6
2022-11-15T12:15:00.499Z,84.9
2022-11-15T12:20:00.505Z,85.5
2022-11-15T12:25:00.520Z,84.9
2022-11-15T12:30:00.524Z,84.9
2022-11-15T12:35:00.452Z,84.6
2022-11-15T12:40:03.784Z,84.3
2022-11-15T12:45:00.170Z,84.3
2022-11-15T12:50:00.151Z,84.6
2022-11-15T12:55:00.145Z,84.9
2022-11-15T13:00:00.145Z,85.5
2022-11-15T13:05:00.160Z,84.9
2022-11-15T13:10:00.178Z,85.8
2022-11-15T13:15:00.177Z,86.1
2022-11-15T13:20:00.192Z,85.5
2022-11-15T13:25:00.973Z,85.5
2022-11-15T13:30:00.199Z,85.4
2022-11-15T13:35:00.239Z,86
2022-11-15T13:40:00.255Z,86
2022-11-15T13:45:00.376Z,86
2022-11-15T13:50:00.322Z,86
2022-11-15T13:55:00.824Z,86
2022-11-15T14:00:00.232Z,86
2022-11-15T14:05:00.732Z,86.3
2022-11-15T14:10:00.224Z,86.3
2022-11-15T14:15:00.250Z,86
2022-11-15T14:20:00.227Z,86.6
2022-11-15T14:25:00.202Z,86.3
2022-11-15T14:30:00.212Z,86.6
2022-11-15T14:35:00.221Z,86
2022-11-15T14:40:00.217Z,86.6
2022-11-15T14:45:00.237Z,86.9
2022-11-15T14:50:00.225Z,86.6
2022-11-15T14:55:00.346Z,87.8
2022-11-15T15:00:00.237Z,87.7
2022-11-15T15:05:00.258Z,88.7
2022-11-15T15:10:32.413Z,88.7
2022-11-15T15:15:00.261Z,89
2022-11-15T15:20:00.273Z,89.3
2022-11-15T15:25:00.285Z,89.6
2022-11-15T15:30:00.275Z,89.9
2022-11-15T15:35:00.279Z,90.2
2022-11-15T15:40:00.871Z,89.9
2022-11-15T15:45:00.291Z,90.2
2022-11-15T15:50:00.299Z,90.2
2022-11-15T15:55:00.294Z,90.2
2022-11-15T16:00:00.311Z,90.2
2022-11-15T16:05:00.310Z,90.2
2022-11-15T16:10:00.415Z,90.5
2022-11-15T16:15:00.326Z,90.5
2022-11-15T16:20:00.537Z,90.7
2022-11-15T16:25:00.344Z,91.4
2022-11-15T16:30:00.346Z,91.4
2022-11-15T16:35:00.349Z,91.3
2022-11-15T16:40:01.322Z,91.9
2022-11-15T16:45:00.363Z,91.9
2022-11-15T16:50:00.373Z,91.9
2022-11-15T16:55:00.374Z,91.9
2022-11-15T17:00:00.378Z,91.9
2022-11-15T17:05:03.310Z,91.9
2022-11-15T17:10:00.384Z,91.9
2022-11-15T17:15:00.370Z,92.5
2022-11-15T17:20:00.393Z,92.5
2022-11-15T17:25:00.380Z,92.2
2022-11-15T17:30:00.394Z,91.9
2022-11-15T17:35:00.416Z,92.2
2022-11-15T17:40:00.399Z,92.2
2022-11-15T17:45:03.883Z,91.9
2022-11-15T17:50:00.433Z,92.2
2022-11-15T17:55:00.445Z,92.2
2022-11-15T18:00:00.441Z,92.5
2022-11-15T18:05:00.461Z,92.2
2022-11-15T18:10:00.454Z,92.5
2022-11-15T18:15:00.462Z,92.2
2022-11-15T18:20:00.457Z,92.2
2022-11-15T18:25:00.454Z,92.2
2022-11-15T18:30:00.460Z,91.9
2022-11-15T18:35:00.407Z,92.2
2022-11-15T18:40:00.264Z,91.9
2022-11-15T18:45:00.121Z,91.9
2022-11-15T18:50:00.097Z,91.9
2022-11-15T18:55:00.123Z,92.2
2022-11-15T19:00:00.119Z,92.5
2022-11-15T19:05:00.127Z,92.2
2022-11-15T19:10:00.144Z,92.5
2022-11-15T19:15:00.131Z,92.2
2022-11-15T19:20:00.154Z,92.5
2022-11-15T19:25:00.142Z,92.5
2022-11-15T19:30:00.170Z,92.5
2022-11-15T19:35:00.150Z,92.5
2022-11-15T19:40:00.167Z,92.5
2022-11-15T19:45:00.163Z,92.5
2022-11-15T19:50:00.173Z,92.4
2022-11-15T19:55:00.174Z,92.4
2022-11-15T20:00:05.836Z,92.4
2022-11-15T20:05:00.195Z,92.8
2022-11-15T20:10:00.194Z,92.7
2022-11-15T20:15:00.193Z,93.1
2022-11-15T20:20:00.191Z,93.1
2022-11-15T20:25:00.201Z,92.5
2022-11-15T20:30:00.211Z,92.5
2022-11-15T20:35:00.235Z,92.5
2022-11-15T20:40:00.247Z,92.4
2022-11-15T20:45:00.235Z,92.8
2022-11-15T20:50:14.828Z,92.5
2022-11-15T20:55:00.254Z,92.5
2022-11-15T21:00:05.420Z,92.5
2022-11-15T21:05:00.268Z,92.5
2022-11-15T21:10:00.328Z,92.5
2022-11-15T21:15:00.308Z,92.4
2022-11-15T21:20:00.285Z,91.8
2022-11-15T21:25:00.280Z,91.8
2022-11-15T21:30:00.311Z,91.2
2022-11-15T21:35:00.299Z,91.6
2022-11-15T21:40:00.298Z,91.5
2022-11-15T21:45:00.305Z,91.9
2022-11-15T21:50:00.314Z,91.9
2022-11-15T21:55:00.321Z,91.5
2022-11-15T22:00:00.331Z,91.9
2022-11-15T22:05:00.342Z,91.9
2022-11-15T22:10:00.378Z,91.9
2022-11-15T22:15:00.366Z,92.2
2022-11-15T22:20:11.481Z,92.2
2022-11-15T22:25:00.324Z,92.5
2022-11-15T22:30:00.329Z,91.8
2022-11-15T22:35:00.326Z,92.2
2022-11-15T22:40:00.334Z,92.2
2022-11-15T22:45:00.343Z,92.2
2022-11-15T22:50:00.341Z,92.2
2022-11-15T22:55:00.354Z,91.9
2022-11-15T23:00:00.380Z,91.5
2022-11-15T23:05:00.357Z,91.5
2022-11-15T23:10:00.370Z,91.9
2022-11-15T23:15:00.364Z,91.9
2022-11-15T23:20:07.458Z,91.9
2022-11-15T23:25:00.382Z,92.2
2022-11-15T23:30:00.410Z,91.9
2022-11-15T23:35:00.385Z,92.5
2022-11-15T23:40:00.391Z,92.5
2022-11-15T23:45:00.401Z,92.5
2022-11-15T23:50:00.407Z,92.5
2022-11-15T23:55:00.425Z,92.8
